sensor_id;sensor_type;location;lat;lon;timestamp;pressure;altitude;pressure_sealevel;temperature;humidity
77583;BME280;66726;52.388;9.986;2023-02-27T00:01:32;102153.28;;;-0.64;74.25
77583;BME280;66726;52.388;9.986;2023-02-27T00:04:01;102151.53;;;-0.64;74.05
77583;BME280;66726;52.388;9.986;2023-02-27T00:06:29;102155.78;;;-0.60;73.92
77583;BME280;66726;52.388;9.986;2023-02-27T00:08:57;102150.50;;;-0.60;73.32
77583;BME280;66726;52.388;9.986;2023-02-27T00:11:26;102148.91;;;-0.64;73.88
77583;BME280;66726;52.388;9.986;2023-02-27T00:13:55;102152.44;;;-0.65;73.59
77583;BME280;66726;52.388;9.986;2023-02-27T00:16:25;102156.19;;;-0.72;73.69
77583;BME280;66726;52.388;9.986;2023-02-27T00:18:53;102154.53;;;-0.74;73.19
77583;BME280;66726;52.388;9.986;2023-02-27T00:21:23;102156.31;;;-0.75;74.23
77583;BME280;66726;52.388;9.986;2023-02-27T00:23:51;102156.84;;;-0.90;74.27
77583;BME280;66726;52.388;9.986;2023-02-27T00:26:19;102151.53;;;-0.88;74.97
77583;BME280;66726;52.388;9.986;2023-02-27T00:28:48;102150.72;;;-0.90;73.90
77583;BME280;66726;52.388;9.986;2023-02-27T00:31:16;102154.91;;;-0.85;74.26
77583;BME280;66726;52.388;9.986;2023-02-27T00:33:45;102148.97;;;-0.90;74.27
77583;BME280;66726;52.388;9.986;2023-02-27T00:36:14;102142.78;;;-0.89;73.97
77583;BME280;66726;52.388;9.986;2023-02-27T00:38:42;102146.44;;;-0.93;74.27
77583;BME280;66726;52.388;9.986;2023-02-27T00:41:10;102141.47;;;-1.02;73.64
77583;BME280;66726;52.388;9.986;2023-02-27T00:43:38;102146.00;;;-1.06;74.23
77583;BME280;66726;52.388;9.986;2023-02-27T00:46:06;102143.97;;;-0.97;73.74
77583;BME280;66726;52.388;9.986;2023-02-27T00:48:35;102145.81;;;-0.99;72.99
77583;BME280;66726;52.388;9.986;2023-02-27T00:51:04;102150.38;;;-1.06;74.42
77583;BME280;66726;52.388;9.986;2023-02-27T00:53:32;102152.59;;;-0.94;73.11
77583;BME280;66726;52.388;9.986;2023-02-27T00:56:01;102155.72;;;-1.08;74.18
77583;BME280;66726;52.388;9.986;2023-02-27T00:58:29;102152.53;;;-0.92;73.78
77583;BME280;66726;52.388;9.986;2023-02-27T01:00:58;102158.25;;;-1.06;73.73
77583;BME280;66726;52.388;9.986;2023-02-27T01:03:27;102157.47;;;-1.08;73.70
77583;BME280;66726;52.388;9.986;2023-02-27T01:05:55;102165.50;;;-1.13;73.92
77583;BME280;66726;52.388;9.986;2023-02-27T01:08:25;102157.03;;;-1.21;74.83
77583;BME280;66726;52.388;9.986;2023-02-27T01:10:54;102157.97;;;-1.23;73.34
77583;BME280;66726;52.388;9.986;2023-02-27T01:13:22;102157.25;;;-1.02;74.06
77583;BME280;66726;52.388;9.986;2023-02-27T01:15:51;102159.91;;;-1.28;73.97
77583;BME280;66726;52.388;9.986;2023-02-27T01:18:19;102157.59;;;-1.37;73.84
77583;BME280;66726;52.388;9.986;2023-02-27T01:20:51;102151.41;;;-1.36;73.77
77583;BME280;66726;52.388;9.986;2023-02-27T01:23:21;102149.88;;;-1.43;73.78
77583;BME280;66726;52.388;9.986;2023-02-27T01:25:51;102151.41;;;-1.36;73.70
77583;BME280;66726;52.388;9.986;2023-02-27T01:28:19;102151.31;;;-1.33;73.71
77583;BME280;66726;52.388;9.986;2023-02-27T01:30:47;102151.31;;;-1.33;74.93
77583;BME280;66726;52.388;9.986;2023-02-27T01:33:16;102144.69;;;-1.19;72.62
77583;BME280;66726;52.388;9.986;2023-02-27T01:35:44;102154.00;;;-1.35;72.52
77583;BME280;66726;52.388;9.986;2023-02-27T01:38:12;102147.56;;;-1.52;74.96
77583;BME280;66726;52.388;9.986;2023-02-27T01:40:41;102147.38;;;-1.46;73.99
77583;BME280;66726;52.388;9.986;2023-02-27T01:43:16;102146.94;;;-1.61;73.40
77583;BME280;66726;52.388;9.986;2023-02-27T01:45:46;102150.94;;;-1.75;75.47
77583;BME280;66726;52.388;9.986;2023-02-27T01:48:19;102144.53;;;-1.67;73.96
77583;BME280;66726;52.388;9.986;2023-02-27T01:50:53;102146.22;;;-1.92;74.84
77583;BME280;66726;52.388;9.986;2023-02-27T01:53:25;102155.00;;;-1.94;75.22
77583;BME280;66726;52.388;9.986;2023-02-27T01:55:59;102146.91;;;-1.87;75.48
77583;BME280;66726;52.388;9.986;2023-02-27T01:58:31;102153.22;;;-1.92;76.31
77583;BME280;66726;52.388;9.986;2023-02-27T02:00:59;102151.38;;;-1.89;76.21
77583;BME280;66726;52.388;9.986;2023-02-27T02:03:35;102154.78;;;-1.87;75.34
77583;BME280;66726;52.388;9.986;2023-02-27T02:06:06;102151.38;;;-1.89;75.03
77583;BME280;66726;52.388;9.986;2023-02-27T02:08:41;102160.50;;;-1.74;74.63
77583;BME280;66726;52.388;9.986;2023-02-27T02:11:12;102158.81;;;-1.75;75.05
77583;BME280;66726;52.388;9.986;2023-02-27T02:13:43;102149.53;;;-1.87;75.02
77583;BME280;66726;52.388;9.986;2023-02-27T02:16:34;102153.81;;;-1.84;76.30
77583;BME280;66726;52.388;9.986;2023-02-27T02:19:47;102155.53;;;-1.82;76.80
77583;BME280;66726;52.388;9.986;2023-02-27T02:23:12;102151.97;;;-1.81;76.94
77583;BME280;66726;52.388;9.986;2023-02-27T02:26:26;102154.44;;;-1.75;76.89
77583;BME280;66726;52.388;9.986;2023-02-27T02:33:00;102143.06;;;-1.75;76.30
77583;BME280;66726;52.388;9.986;2023-02-27T02:36:15;102151.84;;;-1.76;76.95
77583;BME280;66726;52.388;9.986;2023-02-27T02:39:24;102141.38;;;-1.78;77.25
77583;BME280;66726;52.388;9.986;2023-02-27T02:42:02;102144.00;;;-1.78;77.64
77583;BME280;66726;52.388;9.986;2023-02-27T02:44:40;102142.41;;;-1.82;78.06
77583;BME280;66726;52.388;9.986;2023-02-27T02:47:24;102139.91;;;-1.86;78.11
77583;BME280;66726;52.388;9.986;2023-02-27T02:50:05;102144.47;;;-1.93;77.70
77583;BME280;66726;52.388;9.986;2023-02-27T02:52:48;102138.38;;;-1.93;78.42
77583;BME280;66726;52.388;9.986;2023-02-27T02:55:26;102134.84;;;-1.92;78.31
77583;BME280;66726;52.388;9.986;2023-02-27T02:58:06;102147.91;;;-1.91;78.03
77583;BME280;66726;52.388;9.986;2023-02-27T03:00:41;102139.09;;;-1.88;77.86
77583;BME280;66726;52.388;9.986;2023-02-27T03:03:21;102142.63;;;-1.89;77.71
77583;BME280;66726;52.388;9.986;2023-02-27T03:05:58;102146.13;;;-1.89;78.72
77583;BME280;66726;52.388;9.986;2023-02-27T03:08:32;102142.66;;;-1.91;78.50
77583;BME280;66726;52.388;9.986;2023-02-27T03:11:04;102141.78;;;-1.91;78.04
77583;BME280;66726;52.388;9.986;2023-02-27T03:13:37;102137.47;;;-1.92;77.93
77583;BME280;66726;52.388;9.986;2023-02-27T03:16:11;102146.25;;;-1.93;78.98
77583;BME280;66726;52.388;9.986;2023-02-27T03:18:50;102148.97;;;-1.96;78.30
77583;BME280;66726;52.388;9.986;2023-02-27T03:21:29;102146.63;;;-2.06;79.02
77583;BME280;66726;52.388;9.986;2023-02-27T03:24:05;102149.19;;;-2.04;78.99
77583;BME280;66726;52.388;9.986;2023-02-27T03:26:41;102152.56;;;-1.99;78.00
77583;BME280;66726;52.388;9.986;2023-02-27T03:29:17;102158.88;;;-2.06;78.09
77583;BME280;66726;52.388;9.986;2023-02-27T03:31:52;102155.50;;;-2.10;78.06
77583;BME280;66726;52.388;9.986;2023-02-27T03:34:29;102155.63;;;-2.14;78.26
77583;BME280;66726;52.388;9.986;2023-02-27T03:37:04;102159.91;;;-2.12;78.87
77583;BME280;66726;52.388;9.986;2023-02-27T03:39:44;102165.13;;;-2.10;78.18
77583;BME280;66726;52.388;9.986;2023-02-27T03:42:24;102166.91;;;-2.12;78.81
77583;BME280;66726;52.388;9.986;2023-02-27T03:45:03;102164.38;;;-2.15;78.22
77583;BME280;66726;52.388;9.986;2023-02-27T03:47:33;102167.84;;;-2.13;77.47
77583;BME280;66726;52.388;9.986;2023-02-27T03:50:02;102162.94;;;-2.25;77.43
77583;BME280;66726;52.388;9.986;2023-02-27T03:52:31;102164.47;;;-2.18;76.90
77583;BME280;66726;52.388;9.986;2023-02-27T03:55:07;102168.19;;;-2.25;76.51
77583;BME280;66726;52.388;9.986;2023-02-27T03:57:39;102162.69;;;-2.16;76.20
77583;BME280;66726;52.388;9.986;2023-02-27T04:00:12;102169.63;;;-2.15;77.12
77583;BME280;66726;52.388;9.986;2023-02-27T04:02:45;102176.69;;;-2.17;76.89
77583;BME280;66726;52.388;9.986;2023-02-27T04:05:14;102182.28;;;-2.29;75.83
77583;BME280;66726;52.388;9.986;2023-02-27T04:07:56;102185.91;;;-2.33;75.86
77583;BME280;66726;52.388;9.986;2023-02-27T04:10:53;102188.47;;;-2.30;76.29
77583;BME280;66726;52.388;9.986;2023-02-27T04:13:43;102195.66;;;-2.38;75.86
77583;BME280;66726;52.388;9.986;2023-02-27T04:17:01;102189.03;;;-2.51;76.83
77583;BME280;66726;52.388;9.986;2023-02-27T04:19:57;102184.53;;;-2.46;76.16
77583;BME280;66726;52.388;9.986;2023-02-27T04:22:36;102184.88;;;-2.59;76.92
77583;BME280;66726;52.388;9.986;2023-02-27T04:25:26;102183.22;;;-2.63;77.41
77583;BME280;66726;52.388;9.986;2023-02-27T04:28:06;102184.19;;;-2.65;76.51
77583;BME280;66726;52.388;9.986;2023-02-27T04:30:46;102186.81;;;-2.67;76.52
77583;BME280;66726;52.388;9.986;2023-02-27T04:33:27;102188.72;;;-2.72;76.49
77583;BME280;66726;52.388;9.986;2023-02-27T04:36:03;102189.44;;;-2.65;76.32
77583;BME280;66726;52.388;9.986;2023-02-27T04:38:38;102178.75;;;-2.58;76.99
77583;BME280;66726;52.388;9.986;2023-02-27T04:41:12;102196.59;;;-2.72;77.64
77583;BME280;66726;52.388;9.986;2023-02-27T04:43:45;102192.50;;;-2.82;76.82
77583;BME280;66726;52.388;9.986;2023-02-27T04:46:18;102194.16;;;-2.79;77.49
77583;BME280;66726;52.388;9.986;2023-02-27T04:48:54;102189.63;;;-2.73;77.92
77583;BME280;66726;52.388;9.986;2023-02-27T04:51:31;102192.06;;;-2.67;78.26
77583;BME280;66726;52.388;9.986;2023-02-27T04:54:08;102192.06;;;-2.67;77.35
77583;BME280;66726;52.388;9.986;2023-02-27T04:56:44;102204.75;;;-2.84;76.70
77583;BME280;66726;52.388;9.986;2023-02-27T04:59:18;102206.56;;;-2.84;77.52
77583;BME280;66726;52.388;9.986;2023-02-27T05:01:55;102212.91;;;-2.94;78.97
77583;BME280;66726;52.388;9.986;2023-02-27T05:04:29;102219.06;;;-2.97;78.05
77583;BME280;66726;52.388;9.986;2023-02-27T05:07:02;102211.13;;;-2.92;77.69
77583;BME280;66726;52.388;9.986;2023-02-27T05:09:41;102211.13;;;-2.94;77.83
77583;BME280;66726;52.388;9.986;2023-02-27T05:12:16;102213.84;;;-2.97;77.47
77583;BME280;66726;52.388;9.986;2023-02-27T05:14:53;102210.16;;;-2.90;78.32
77583;BME280;66726;52.388;9.986;2023-02-27T05:17:31;102205.63;;;-2.83;79.09
77583;BME280;66726;52.388;9.986;2023-02-27T05:20:03;102214.16;;;-2.75;77.76
77583;BME280;66726;52.388;9.986;2023-02-27T05:22:44;102223.06;;;-2.82;77.11
77583;BME280;66726;52.388;9.986;2023-02-27T05:25:19;102224.41;;;-3.00;77.22
77583;BME280;66726;52.388;9.986;2023-02-27T05:27:56;102226.28;;;-3.05;77.66
77583;BME280;66726;52.388;9.986;2023-02-27T05:30:35;102224.47;;;-3.03;77.46
77583;BME280;66726;52.388;9.986;2023-02-27T05:33:12;102217.56;;;-3.05;78.01
77583;BME280;66726;52.388;9.986;2023-02-27T05:35:50;102232.09;;;-2.94;78.14
77583;BME280;66726;52.388;9.986;2023-02-27T05:38:24;102231.88;;;-2.85;78.24
77583;BME280;66726;52.388;9.986;2023-02-27T05:41:00;102230.25;;;-2.89;79.09
77583;BME280;66726;52.388;9.986;2023-02-27T05:43:36;102231.22;;;-2.93;80.48
77583;BME280;66726;52.388;9.986;2023-02-27T05:46:13;102237.25;;;-2.91;80.38
77583;BME280;66726;52.388;9.986;2023-02-27T05:48:49;102230.34;;;-2.93;81.82
77583;BME280;66726;52.388;9.986;2023-02-27T05:51:20;102231.97;;;-2.88;81.10
77583;BME280;66726;52.388;9.986;2023-02-27T05:53:59;102232.88;;;-2.89;81.50
77583;BME280;66726;52.388;9.986;2023-02-27T05:56:32;102229.28;;;-2.86;82.49
77583;BME280;66726;52.388;9.986;2023-02-27T05:59:07;102243.09;;;-2.80;81.82
77583;BME280;66726;52.388;9.986;2023-02-27T06:01:37;102239.66;;;-2.82;82.51
77583;BME280;66726;52.388;9.986;2023-02-27T06:04:06;102241.44;;;-2.84;82.96
77583;BME280;66726;52.388;9.986;2023-02-27T06:06:35;102242.31;;;-2.83;83.27
77583;BME280;66726;52.388;9.986;2023-02-27T06:09:03;102243.88;;;-2.76;83.13
77583;BME280;66726;52.388;9.986;2023-02-27T06:11:31;102255.16;;;-2.73;83.02
77583;BME280;66726;52.388;9.986;2023-02-27T06:14:00;102261.28;;;-2.74;83.13
77583;BME280;66726;52.388;9.986;2023-02-27T06:16:28;102264.69;;;-2.70;83.02
77583;BME280;66726;52.388;9.986;2023-02-27T06:18:56;102266.31;;;-2.65;82.62
77583;BME280;66726;52.388;9.986;2023-02-27T06:21:26;102269.75;;;-2.63;83.19
77583;BME280;66726;52.388;9.986;2023-02-27T06:23:54;102271.38;;;-2.59;83.07
77583;BME280;66726;52.388;9.986;2023-02-27T06:26:22;102270.41;;;-2.54;83.09
77583;BME280;66726;52.388;9.986;2023-02-27T06:28:50;102278.28;;;-2.54;83.37
77583;BME280;66726;52.388;9.986;2023-02-27T06:31:18;102277.38;;;-2.53;83.41
77583;BME280;66726;52.388;9.986;2023-02-27T06:33:46;102281.72;;;-2.52;83.78
77583;BME280;66726;52.388;9.986;2023-02-27T06:36:15;102285.97;;;-2.48;83.33
77583;BME280;66726;52.388;9.986;2023-02-27T06:38:44;102276.28;;;-2.45;83.76
77583;BME280;66726;52.388;9.986;2023-02-27T06:41:12;102277.88;;;-2.39;83.17
77583;BME280;66726;52.388;9.986;2023-02-27T06:43:40;102272.56;;;-2.36;82.39
77583;BME280;66726;52.388;9.986;2023-02-27T06:46:08;102270.78;;;-2.36;82.75
77583;BME280;66726;52.388;9.986;2023-02-27T06:48:37;102285.59;;;-2.33;83.42
77583;BME280;66726;52.388;9.986;2023-02-27T06:51:05;102291.75;;;-2.36;83.47
77583;BME280;66726;52.388;9.986;2023-02-27T06:53:33;102289.88;;;-2.31;83.47
77583;BME280;66726;52.388;9.986;2023-02-27T06:56:03;102290.75;;;-2.30;83.49
77583;BME280;66726;52.388;9.986;2023-02-27T06:58:31;102287.19;;;-2.29;83.57
77583;BME280;66726;52.388;9.986;2023-02-27T07:01:00;102294.09;;;-2.25;83.35
77583;BME280;66726;52.388;9.986;2023-02-27T07:03:28;102297.56;;;-2.23;83.53
77583;BME280;66726;52.388;9.986;2023-02-27T07:05:56;102301.00;;;-2.21;83.09
77583;BME280;66726;52.388;9.986;2023-02-27T07:08:25;102305.28;;;-2.19;83.55
77583;BME280;66726;52.388;9.986;2023-02-27T07:10:53;102302.63;;;-2.17;83.89
77583;BME280;66726;52.388;9.986;2023-02-27T07:13:23;102306.84;;;-2.12;83.02
77583;BME280;66726;52.388;9.986;2023-02-27T07:15:51;102311.09;;;-2.08;83.54
77583;BME280;66726;52.388;9.986;2023-02-27T07:18:19;102299.72;;;-2.07;83.01
77583;BME280;66726;52.388;9.986;2023-02-27T07:20:50;102303.31;;;-2.11;83.02
77583;BME280;66726;52.388;9.986;2023-02-27T07:23:18;102308.47;;;-2.06;83.10
77583;BME280;66726;52.388;9.986;2023-02-27T07:25:46;102305.75;;;-2.03;83.10
77583;BME280;66726;52.388;9.986;2023-02-27T07:28:14;102307.44;;;-2.02;83.65
77583;BME280;66726;52.388;9.986;2023-02-27T07:30:44;102303.03;;;-2.00;83.54
77583;BME280;66726;52.388;9.986;2023-02-27T07:33:12;102307.44;;;-2.02;83.30
77583;BME280;66726;52.388;9.986;2023-02-27T07:35:40;102302.97;;;-1.98;82.68
77583;BME280;66726;52.388;9.986;2023-02-27T07:38:08;102315.19;;;-1.96;83.36
77583;BME280;66726;52.388;9.986;2023-02-27T07:40:36;102310.72;;;-1.94;82.96
77583;BME280;66726;52.388;9.986;2023-02-27T07:43:04;102307.97;;;-1.89;83.26
77583;BME280;66726;52.388;9.986;2023-02-27T07:45:33;102312.28;;;-1.87;83.73
77583;BME280;66726;52.388;9.986;2023-02-27T07:48:02;102305.22;;;-1.85;84.53
77583;BME280;66726;52.388;9.986;2023-02-27T07:50:30;102303.41;;;-1.83;84.67
77583;BME280;66726;52.388;9.986;2023-02-27T07:52:58;102299.91;;;-1.82;84.46
77583;BME280;66726;52.388;9.986;2023-02-27T07:55:26;102299.81;;;-1.79;84.05
77583;BME280;66726;52.388;9.986;2023-02-27T07:57:54;102300.63;;;-1.77;84.07
77583;BME280;66726;52.388;9.986;2023-02-27T08:00:23;102298.66;;;-1.70;83.61
77583;BME280;66726;52.388;9.986;2023-02-27T08:02:51;102301.16;;;-1.66;83.78
77583;BME280;66726;52.388;9.986;2023-02-27T08:05:20;102307.22;;;-1.64;84.33
77583;BME280;66726;52.388;9.986;2023-02-27T08:07:49;102303.66;;;-1.61;84.65
77583;BME280;66726;52.388;9.986;2023-02-27T08:10:17;102318.47;;;-1.59;84.02
77583;BME280;66726;52.388;9.986;2023-02-27T08:12:45;102314.75;;;-1.51;84.86
77583;BME280;66726;52.388;9.986;2023-02-27T08:15:13;102318.00;;;-1.43;83.35
77583;BME280;66726;52.388;9.986;2023-02-27T08:17:44;102327.31;;;-1.33;84.88
77583;BME280;66726;52.388;9.986;2023-02-27T08:20:13;102328.75;;;-1.23;83.37
77583;BME280;66726;52.388;9.986;2023-02-27T08:22:43;102326.75;;;-1.14;84.39
77583;BME280;66726;52.388;9.986;2023-02-27T08:25:11;102323.84;;;-1.06;82.97
77583;BME280;66726;52.388;9.986;2023-02-27T08:27:39;102338.50;;;-0.97;82.51
77583;BME280;66726;52.388;9.986;2023-02-27T08:30:11;102334.69;;;-0.89;83.25
77583;BME280;66726;52.388;9.986;2023-02-27T08:32:39;102337.84;;;-0.78;82.60
